Time,TemperatureF,DewpointF,PressureIn,WindDirection,WindDirectionDegrees,WindSpeedMPH,WindSpeedGustMPH,Humidity,HourlyPrecipIn,Conditions,Clouds,dailyrainin,SoftwareType,DateUTC
2013-02-23 00:01:00,35.2,35.0,30.27,NNW,338,0.0,1.0,99,0.01,,-RA,0.23,VWS V14.01,2013-02-23 05:01:00,
2013-02-23 00:02:00,35.0,34.8,30.27,NNW,338,0.0,1.0,99,0.01,,-RA,0.23,VWS V14.01,2013-02-23 05:02:00,
2013-02-23 00:05:00,35.0,34.8,30.26,NNW,338,0.0,1.0,99,0.01,,-RA,0.00,VWS V14.01,2013-02-23 05:05:00,
2013-02-23 00:07:00,35.0,34.8,30.26,NNW,338,0.0,0.0,99,0.00,,-RA,0.00,VWS V14.01,2013-02-23 05:07:00,
2013-02-23 00:13:00,35.2,35.0,30.26,NNW,342,0.0,0.0,99,0.00,,-RA,0.00,VWS V14.01,2013-02-23 05:13:00,
2013-02-23 00:19:00,35.2,35.0,30.24,NNW,342,0.0,1.0,99,0.00,,-RA,0.00,VWS V14.01,2013-02-23 05:19:00,
2013-02-23 00:25:00,35.2,35.0,30.24,NNW,342,0.0,1.0,99,0.01,,-RA,0.01,VWS V14.01,2013-02-23 05:25:00,
2013-02-23 00:30:00,35.2,35.0,30.24,ENE,58,0.0,2.0,99,0.01,,-RA,0.01,VWS V14.01,2013-02-23 05:30:00,
2013-02-23 00:36:00,35.2,35.0,30.23,ENE,58,0.0,0.0,99,0.01,,-RA,0.01,VWS V14.01,2013-02-23 05:36:00,
2013-02-23 00:42:00,35.2,35.0,30.23,ENE,58,0.0,1.0,99,0.01,,-RA,0.01,VWS V14.01,2013-02-23 05:42:00,
2013-02-23 00:48:00,35.3,35.0,30.23,ENE,58,0.0,0.0,99,0.01,,-RA,0.01,VWS V14.01,2013-02-23 05:48:00,
2013-02-23 00:54:00,35.3,35.0,30.22,ENE,58,0.0,1.0,99,0.01,,-RA,0.01,VWS V14.01,2013-02-23 05:54:00,
2013-02-23 01:00:00,35.3,35.0,30.22,ENE,58,0.0,1.0,99,0.01,,-RA,0.01,VWS V14.01,2013-02-23 06:00:00,
2013-02-23 01:06:00,35.3,35.0,30.23,NNE,28,0.0,1.0,99,0.01,,,0.01,VWS V14.01,2013-02-23 06:06:00,
2013-02-23 01:12:00,35.3,35.0,30.23,NNE,28,0.0,1.0,99,0.01,,,0.01,VWS V14.01,2013-02-23 06:12:00,
2013-02-23 01:18:00,35.3,35.0,30.23,NNE,28,0.0,0.0,99,0.01,,,0.01,VWS V14.01,2013-02-23 06:18:00,
2013-02-23 01:24:00,35.5,35.2,30.22,NNE,28,0.0,1.0,99,0.01,,,0.01,VWS V14.01,2013-02-23 06:24:00,
2013-02-23 01:30:00,35.5,35.2,30.22,NNE,25,0.0,0.0,99,0.00,,,0.01,VWS V14.01,2013-02-23 06:30:00,
2013-02-23 01:36:00,35.5,35.2,30.22,NNE,25,0.0,0.0,99,0.00,,,0.01,VWS V14.01,2013-02-23 06:36:00,
2013-02-23 01:42:00,35.5,35.2,30.22,NNE,25,0.0,0.0,99,0.00,,,0.01,VWS V14.01,2013-02-23 06:42:00,
2013-02-23 01:48:00,35.5,35.2,30.22,NNE,25,0.0,1.0,99,0.00,,,0.01,VWS V14.01,2013-02-23 06:48:00,
2013-02-23 01:54:00,35.5,35.2,30.20,NE,35,0.0,1.0,99,0.00,,,0.01,VWS V14.01,2013-02-23 06:54:00,
2013-02-23 02:00:00,35.5,35.2,30.20,NNW,328,0.0,2.0,99,0.00,,,0.01,VWS V14.01,2013-02-23 07:00:00,
2013-02-23 02:07:00,35.5,35.2,30.21,NNW,328,0.0,1.0,99,0.00,,,0.01,VWS V14.01,2013-02-23 07:07:00,
2013-02-23 02:13:00,35.5,35.2,30.21,NNW,328,0.0,1.0,99,0.00,,,0.01,VWS V14.01,2013-02-23 07:13:00,
2013-02-23 02:19:00,35.6,35.3,30.21,NNE,14,0.0,3.0,99,0.00,,,0.01,VWS V14.01,2013-02-23 07:19:00,
2013-02-23 02:25:00,35.6,35.3,30.22,NNE,14,1.0,3.0,99,0.01,,,0.02,VWS V14.01,2013-02-23 07:25:00,
2013-02-23 02:31:00,35.6,35.3,30.22,North,1,0.0,5.0,99,0.01,,,0.02,VWS V14.01,2013-02-23 07:31:00,
2013-02-23 02:37:00,35.6,35.3,30.21,WNW,295,0.0,4.0,99,0.01,,,0.02,VWS V14.01,2013-02-23 07:37:00,
2013-02-23 02:43:00,35.6,35.3,30.21,North,357,0.0,4.0,99,0.01,,,0.02,VWS V14.01,2013-02-23 07:43:00,
2013-02-23 02:49:00,35.6,35.3,30.19,North,6,1.0,3.0,99,0.01,,,0.02,VWS V14.01,2013-02-23 07:49:00,
2013-02-23 02:55:00,35.6,35.6,30.19,NNE,14,2.0,5.0,100,0.01,,,0.02,VWS V14.01,2013-02-23 07:55:00,
2013-02-23 03:01:00,35.6,35.6,30.19,WSW,239,1.0,3.0,100,0.01,,,0.02,VWS V14.01,2013-02-23 08:01:00,
2013-02-23 03:07:00,35.6,35.6,30.18,WSW,239,0.0,1.0,100,0.01,,-RA,0.02,VWS V14.01,2013-02-23 08:07:00,
2013-02-23 03:13:00,35.6,35.6,30.18,NNW,347,0.0,5.0,100,0.01,,-RA,0.02,VWS V14.01,2013-02-23 08:13:00,
2013-02-23 03:19:00,35.5,35.5,30.16,NE,44,3.0,4.0,100,0.01,,-RA,0.02,VWS V14.01,2013-02-23 08:19:00,
2013-02-23 03:25:00,35.5,35.5,30.16,South,173,0.0,4.0,100,0.02,,-RA,0.03,VWS V14.01,2013-02-23 08:25:00,
2013-02-23 03:31:00,35.5,35.5,30.16,NE,56,0.0,2.0,100,0.01,,-RA,0.03,VWS V14.01,2013-02-23 08:31:00,
2013-02-23 03:37:00,35.5,35.5,30.16,NNW,344,2.0,3.0,100,0.01,,-RA,0.03,VWS V14.01,2013-02-23 08:37:00,
2013-02-23 03:43:00,35.5,35.5,30.16,ESE,112,0.0,3.0,100,0.01,,-RA,0.03,VWS V14.01,2013-02-23 08:43:00,
2013-02-23 03:49:00,35.5,35.5,30.15,SE,137,0.0,1.0,100,0.01,,-RA,0.03,VWS V14.01,2013-02-23 08:49:00,
2013-02-23 03:55:00,35.5,35.5,30.15,North,0,0.0,2.0,100,0.01,,-RA,0.03,VWS V14.01,2013-02-23 08:55:00,
2013-02-23 04:00:00,35.6,35.6,30.15,NNE,14,0.0,1.0,100,0.01,,-RA,0.03,VWS V14.01,2013-02-23 09:00:00,
2013-02-23 04:05:00,35.6,35.6,30.14,NNE,14,1.0,1.0,100,0.01,,,0.03,VWS V14.01,2013-02-23 09:05:00,
2013-02-23 04:10:00,35.6,35.6,30.14,East,101,0.0,2.0,100,0.01,,,0.03,VWS V14.01,2013-02-23 09:10:00,
2013-02-23 04:16:00,35.6,35.6,30.14,East,101,0.0,0.0,100,0.01,,,0.03,VWS V14.01,2013-02-23 09:16:00,
2013-02-23 04:22:00,35.8,35.8,30.12,East,101,0.0,0.0,100,0.01,,,0.03,VWS V14.01,2013-02-23 09:22:00,
2013-02-23 04:28:00,35.8,35.8,30.12,East,101,0.0,0.0,100,0.00,,,0.03,VWS V14.01,2013-02-23 09:28:00,
2013-02-23 04:34:00,35.8,35.8,30.13,East,101,0.0,1.0,100,0.00,,,0.03,VWS V14.01,2013-02-23 09:34:00,
2013-02-23 04:40:00,35.9,35.9,30.13,East,101,0.0,0.0,100,0.00,,,0.03,VWS V14.01,2013-02-23 09:40:00,
2013-02-23 04:46:00,35.9,35.9,30.13,East,101,0.0,0.0,100,0.00,,,0.03,VWS V14.01,2013-02-23 09:46:00,
2013-02-23 04:52:00,36.0,36.0,30.13,East,90,0.0,1.0,100,0.00,,,0.03,VWS V14.01,2013-02-23 09:52:00,
2013-02-23 04:58:00,36.2,36.2,30.13,East,90,0.0,1.0,100,0.00,,,0.03,VWS V14.01,2013-02-23 09:58:00,
2013-02-23 05:04:00,36.2,36.2,30.14,NNW,342,0.0,4.0,100,0.01,,-RA,0.04,VWS V14.01,2013-02-23 10:04:00,
2013-02-23 05:11:00,36.2,36.2,30.14,NW,314,1.0,4.0,100,0.03,,-RA,0.06,VWS V14.01,2013-02-23 10:11:00,
2013-02-23 05:17:00,36.2,36.2,30.14,WSW,238,0.0,0.0,100,0.05,,-RA,0.08,VWS V14.01,2013-02-23 10:17:00,
2013-02-23 05:23:00,36.2,36.2,30.15,WSW,238,0.0,1.0,100,0.07,,-RA,0.10,VWS V14.01,2013-02-23 10:23:00,
2013-02-23 05:29:00,36.2,36.2,30.15,WSW,238,0.0,0.0,100,0.09,,-RA,0.12,VWS V14.01,2013-02-23 10:29:00,
2013-02-23 05:35:00,36.2,36.2,30.16,WSW,238,0.0,0.0,100,0.10,,-RA,0.13,VWS V14.01,2013-02-23 10:35:00,
2013-02-23 05:41:00,36.3,36.3,30.16,WSW,238,0.0,1.0,100,0.15,,-RA,0.18,VWS V14.01,2013-02-23 10:41:00,
2013-02-23 05:47:00,36.3,36.3,30.16,WSW,238,0.0,2.0,100,0.17,,-RA,0.20,VWS V14.01,2013-02-23 10:47:00,
2013-02-23 05:53:00,36.3,36.3,30.14,NNW,342,0.0,2.0,100,0.20,,-RA,0.23,VWS V14.01,2013-02-23 10:53:00,
2013-02-23 05:59:00,36.3,36.3,30.14,SSW,201,0.0,0.0,100,0.23,,-RA,0.26,VWS V14.01,2013-02-23 10:59:00,
2013-02-23 06:05:00,36.3,36.3,30.15,NW,309,0.0,2.0,100,0.23,,RA,0.26,VWS V14.01,2013-02-23 11:05:00,
2013-02-23 06:11:00,36.5,36.5,30.15,North,358,0.0,2.0,100,0.22,,RA,0.27,VWS V14.01,2013-02-23 11:11:00,
2013-02-23 06:17:00,36.5,36.5,30.15,WNW,302,0.0,0.0,100,0.19,,RA,0.27,VWS V14.01,2013-02-23 11:17:00,
2013-02-23 06:23:00,36.5,36.5,30.15,SW,216,1.0,2.0,100,0.20,,RA,0.28,VWS V14.01,2013-02-23 11:23:00,
2013-02-23 06:29:00,36.5,36.5,30.15,West,261,0.0,2.0,100,0.17,,RA,0.28,VWS V14.01,2013-02-23 11:29:00,
2013-02-23 06:35:00,36.6,36.6,30.16,West,261,0.0,2.0,100,0.18,,RA,0.29,VWS V14.01,2013-02-23 11:35:00,
2013-02-23 06:41:00,36.6,36.6,30.16,West,261,0.0,0.0,100,0.16,,RA,0.29,VWS V14.01,2013-02-23 11:41:00,
2013-02-23 06:47:00,36.6,36.6,30.16,West,261,0.0,1.0,100,0.11,,RA,0.30,VWS V14.01,2013-02-23 11:47:00,
2013-02-23 06:53:00,36.6,36.6,30.16,NE,41,0.0,1.0,100,0.12,,RA,0.31,VWS V14.01,2013-02-23 11:53:00,
2013-02-23 06:59:00,36.6,36.6,30.16,SSE,163,0.0,0.0,100,0.07,,RA,0.31,VWS V14.01,2013-02-23 11:59:00,
2013-02-23 07:05:00,36.6,36.6,30.15,SSE,163,0.0,0.0,100,0.08,,-RA,0.32,VWS V14.01,2013-02-23 12:05:00,
2013-02-23 07:11:00,36.6,36.6,30.15,SSE,163,0.0,0.0,100,0.07,,-RA,0.33,VWS V14.01,2013-02-23 12:11:00,
2013-02-23 07:17:00,36.8,36.8,30.15,SSE,163,0.0,0.0,100,0.07,,-RA,0.34,VWS V14.01,2013-02-23 12:17:00,
2013-02-23 07:23:00,36.8,36.8,30.14,SSE,163,0.0,1.0,100,0.08,,-RA,0.35,VWS V14.01,2013-02-23 12:23:00,
2013-02-23 07:29:00,36.8,36.8,30.14,SSE,163,0.0,1.0,100,0.08,,-RA,0.36,VWS V14.01,2013-02-23 12:29:00,
2013-02-23 07:35:00,36.6,36.6,30.11,NNW,345,0.0,2.0,100,0.09,,-RA,0.37,VWS V14.01,2013-02-23 12:35:00,
2013-02-23 07:40:00,36.8,36.8,30.11,NE,41,0.0,2.0,100,0.08,,-RA,0.37,VWS V14.01,2013-02-23 12:40:00,
2013-02-23 07:46:00,36.6,36.6,30.11,NE,41,1.0,1.0,100,0.08,,-RA,0.38,VWS V14.01,2013-02-23 12:46:00,
2013-02-23 07:52:00,36.6,36.6,30.10,NE,41,1.0,1.0,100,0.09,,-RA,0.39,VWS V14.01,2013-02-23 12:52:00,
2013-02-23 07:58:00,36.8,36.8,30.10,NE,41,0.0,0.0,100,0.08,,-RA,0.39,VWS V14.01,2013-02-23 12:58:00,
2013-02-23 08:04:00,36.8,36.8,30.10,NE,41,0.0,1.0,100,0.08,,-RA,0.39,VWS V14.01,2013-02-23 13:04:00,
2013-02-23 08:10:00,36.8,36.8,30.10,NE,41,0.0,1.0,100,0.07,,-RA,0.39,VWS V14.01,2013-02-23 13:10:00,
2013-02-23 08:16:00,36.9,36.9,30.10,NE,41,0.0,2.0,100,0.06,,-RA,0.39,VWS V14.01,2013-02-23 13:16:00,
2013-02-23 08:22:00,37.0,37.0,30.10,NE,41,0.0,2.0,100,0.06,,-RA,0.39,VWS V14.01,2013-02-23 13:22:00,
2013-02-23 08:28:00,37.0,37.0,30.10,NE,41,0.0,0.0,100,0.03,,-RA,0.39,VWS V14.01,2013-02-23 13:28:00,
2013-02-23 08:34:00,37.2,37.2,30.10,NE,41,0.0,0.0,100,0.03,,-RA,0.39,VWS V14.01,2013-02-23 13:34:00,
2013-02-23 08:40:00,37.2,37.2,30.10,NE,41,0.0,1.0,100,0.03,,-RA,0.40,VWS V14.01,2013-02-23 13:40:00,
2013-02-23 08:46:00,37.2,37.2,30.10,NE,41,0.0,0.0,100,0.02,,-RA,0.40,VWS V14.01,2013-02-23 13:46:00,
2013-02-23 08:52:00,37.3,37.3,30.11,NE,41,0.0,2.0,100,0.02,,-RA,0.40,VWS V14.01,2013-02-23 13:52:00,
2013-02-23 08:58:00,37.3,37.3,30.11,NE,41,1.0,1.0,100,0.02,,-RA,0.41,VWS V14.01,2013-02-23 13:58:00,
2013-02-23 09:04:00,37.3,37.3,30.10,NE,41,1.0,1.0,100,0.03,,-RA,0.42,VWS V14.01,2013-02-23 14:04:00,
2013-02-23 09:10:00,37.5,37.5,30.10,NE,41,0.0,0.0,100,0.04,,-RA,0.43,VWS V14.01,2013-02-23 14:10:00,
2013-02-23 09:16:00,37.5,37.5,30.10,NE,41,0.0,0.0,100,0.05,,-RA,0.44,VWS V14.01,2013-02-23 14:16:00,
2013-02-23 09:22:00,37.6,37.6,30.11,NE,41,0.0,0.0,100,0.06,,-RA,0.45,VWS V14.01,2013-02-23 14:22:00,
2013-02-23 09:28:00,37.6,37.6,30.11,NE,41,0.0,0.0,100,0.07,,-RA,0.46,VWS V14.01,2013-02-23 14:28:00,
2013-02-23 09:34:00,37.8,37.8,30.10,NE,41,0.0,0.0,100,0.07,,-RA,0.46,VWS V14.01,2013-02-23 14:34:00,
2013-02-23 09:40:00,37.8,37.8,30.10,NE,41,0.0,0.0,100,0.08,,-RA,0.47,VWS V14.01,2013-02-23 14:40:00,
2013-02-23 09:47:00,37.8,37.8,30.10,NE,39,0.0,1.0,100,0.08,,-RA,0.48,VWS V14.01,2013-02-23 14:47:00,
2013-02-23 09:53:00,37.9,37.9,30.10,NE,39,0.0,1.0,100,0.08,,-RA,0.48,VWS V14.01,2013-02-23 14:53:00,
2013-02-23 09:59:00,37.9,37.9,30.10,NE,39,0.0,0.0,100,0.08,,-RA,0.49,VWS V14.01,2013-02-23 14:59:00,
2013-02-23 10:05:00,38.0,38.0,30.11,NE,34,0.0,2.0,100,0.09,,-RA,0.50,VWS V14.01,2013-02-23 15:05:00,
2013-02-23 10:11:00,38.0,38.0,30.11,NE,34,0.0,1.0,100,0.08,,-RA,0.50,VWS V14.01,2013-02-23 15:11:00,
2013-02-23 10:17:00,38.0,38.0,30.11,NE,34,0.0,0.0,100,0.06,,-RA,0.50,VWS V14.01,2013-02-23 15:17:00,
2013-02-23 10:23:00,38.2,38.2,30.10,WNW,300,0.0,2.0,100,0.06,,-RA,0.50,VWS V14.01,2013-02-23 15:23:00,
2013-02-23 10:29:00,38.0,38.0,30.10,NNW,339,1.0,2.0,100,0.04,,-RA,0.50,VWS V14.01,2013-02-23 15:29:00,
2013-02-23 10:35:00,38.0,38.0,30.11,WNW,282,0.0,3.0,100,0.04,,-RA,0.50,VWS V14.01,2013-02-23 15:35:00,
2013-02-23 10:41:00,38.0,38.0,30.11,ENE,60,0.0,2.0,100,0.04,,-RA,0.50,VWS V14.01,2013-02-23 15:41:00,
2013-02-23 10:47:00,38.0,38.0,30.11,WNW,288,0.0,1.0,100,0.02,,-RA,0.50,VWS V14.01,2013-02-23 15:47:00,
2013-02-23 10:53:00,38.0,38.0,30.07,WNW,288,0.0,1.0,100,0.03,,-RA,0.51,VWS V14.01,2013-02-23 15:53:00,
2013-02-23 10:59:00,38.2,38.2,30.07,WNW,288,0.0,0.0,100,0.02,,-RA,0.51,VWS V14.01,2013-02-23 15:59:00,
2013-02-23 11:05:00,38.3,38.3,30.09,WNW,288,0.0,2.0,100,0.02,,-RA,0.51,VWS V14.01,2013-02-23 16:05:00,
2013-02-23 11:11:00,38.3,38.3,30.09,WNW,288,0.0,0.0,100,0.01,,-RA,0.51,VWS V14.01,2013-02-23 16:11:00,
2013-02-23 11:17:00,38.2,38.2,30.09,WNW,288,0.0,0.0,100,0.02,,-RA,0.52,VWS V14.01,2013-02-23 16:17:00,
2013-02-23 11:23:00,38.3,38.3,30.08,WNW,288,0.0,0.0,100,0.02,,-RA,0.52,VWS V14.01,2013-02-23 16:23:00,
2013-02-23 11:29:00,38.3,38.3,30.08,WNW,288,0.0,0.0,100,0.02,,-RA,0.52,VWS V14.01,2013-02-23 16:29:00,
2013-02-23 11:35:00,38.5,38.5,30.08,WSW,254,0.0,1.0,100,0.03,,-RA,0.53,VWS V14.01,2013-02-23 16:35:00,
2013-02-23 11:41:00,38.6,38.6,30.08,WSW,254,0.0,0.0,100,0.04,,-RA,0.54,VWS V14.01,2013-02-23 16:41:00,
2013-02-23 11:47:00,38.9,38.9,30.08,WNW,295,1.0,2.0,100,0.06,,-RA,0.56,VWS V14.01,2013-02-23 16:47:00,
2013-02-23 11:53:00,38.8,38.8,30.08,WNW,295,2.0,2.0,100,0.07,,-RA,0.57,VWS V14.01,2013-02-23 16:53:00,
2013-02-23 11:59:00,38.8,38.8,30.08,WNW,295,0.0,2.0,100,0.07,,-RA,0.58,VWS V14.01,2013-02-23 16:59:00,
2013-02-23 12:05:00,38.9,38.9,30.06,WNW,295,1.0,2.0,100,0.07,,-RA,0.58,VWS V14.01,2013-02-23 17:05:00,
2013-02-23 12:10:00,38.9,38.9,30.06,WNW,295,0.0,2.0,100,0.08,,-RA,0.59,VWS V14.01,2013-02-23 17:10:00,
2013-02-23 12:16:00,38.9,38.9,30.06,NW,320,0.0,0.0,100,0.08,,-RA,0.59,VWS V14.01,2013-02-23 17:16:00,
2013-02-23 12:22:00,39.1,39.1,30.05,NW,319,1.0,2.0,100,0.09,,-RA,0.60,VWS V14.01,2013-02-23 17:22:00,
2013-02-23 12:28:00,39.2,39.2,30.05,NW,319,1.0,2.0,100,0.08,,-RA,0.60,VWS V14.01,2013-02-23 17:28:00,
2013-02-23 12:34:00,39.2,39.2,30.06,NW,307,2.0,3.0,100,0.08,,-RA,0.60,VWS V14.01,2013-02-23 17:34:00,
2013-02-23 12:40:00,39.3,39.3,30.06,NW,309,3.0,4.0,100,0.07,,-RA,0.60,VWS V14.01,2013-02-23 17:40:00,
2013-02-23 12:46:00,39.2,39.2,30.06,NNW,329,3.0,3.0,100,0.06,,-RA,0.61,VWS V14.01,2013-02-23 17:46:00,
2013-02-23 12:52:00,39.2,39.2,30.06,NNW,333,1.0,3.0,100,0.06,,-RA,0.61,VWS V14.01,2013-02-23 17:52:00,
2013-02-23 12:58:00,39.2,39.2,30.06,NNW,340,0.0,3.0,100,0.04,,-RA,0.61,VWS V14.01,2013-02-23 17:58:00,
2013-02-23 13:04:00,39.5,39.5,30.04,NNW,327,0.0,3.0,100,0.04,,-RA,0.61,VWS V14.01,2013-02-23 18:04:00,
2013-02-23 13:10:00,39.6,39.6,30.04,North,1,0.0,2.0,100,0.03,,-RA,0.61,VWS V14.01,2013-02-23 18:10:00,
2013-02-23 13:16:00,39.6,39.6,30.04,WNW,285,0.0,3.0,100,0.02,,-RA,0.61,VWS V14.01,2013-02-23 18:16:00,
2013-02-23 13:22:00,39.8,39.8,30.04,WNW,300,2.0,3.0,100,0.02,,-RA,0.61,VWS V14.01,2013-02-23 18:22:00,
2013-02-23 13:28:00,39.8,39.8,30.04,West,270,0.0,2.0,100,0.01,,-RA,0.61,VWS V14.01,2013-02-23 18:28:00,
2013-02-23 13:34:00,40.1,40.1,30.04,West,270,1.0,2.0,100,0.01,,-RA,0.61,VWS V14.01,2013-02-23 18:34:00,
2013-02-23 13:40:00,40.3,40.3,30.04,WNW,297,1.0,3.0,100,0.01,,-RA,0.61,VWS V14.01,2013-02-23 18:40:00,
2013-02-23 13:46:00,40.2,40.2,30.04,WNW,287,1.0,2.0,100,0.01,,-RA,0.61,VWS V14.01,2013-02-23 18:46:00,
2013-02-23 13:52:00,40.2,40.2,30.05,WNW,289,0.0,6.0,100,0.01,,-RA,0.61,VWS V14.01,2013-02-23 18:52:00,
2013-02-23 13:58:00,40.2,40.2,30.05,West,281,2.0,3.0,100,0.00,,-RA,0.61,VWS V14.01,2013-02-23 18:58:00,
2013-02-23 14:04:00,40.3,40.3,30.04,North,0,3.0,3.0,100,0.00,,-RA,0.61,VWS V14.01,2013-02-23 19:04:00,
2013-02-23 14:10:00,40.3,40.3,30.04,WNW,298,0.0,2.0,100,0.00,,-RA,0.61,VWS V14.01,2013-02-23 19:10:00,
2013-02-23 14:16:00,40.5,40.5,30.04,WNW,298,0.0,0.0,100,0.00,,-RA,0.61,VWS V14.01,2013-02-23 19:16:00,
2013-02-23 14:22:00,40.6,40.6,30.02,West,266,1.0,3.0,100,0.00,,-RA,0.61,VWS V14.01,2013-02-23 19:22:00,
2013-02-23 14:28:00,40.8,40.8,30.02,West,266,1.0,1.0,100,0.00,,-RA,0.61,VWS V14.01,2013-02-23 19:28:00,
2013-02-23 14:34:00,40.8,40.8,30.02,West,266,0.0,2.0,100,0.00,,-RA,0.61,VWS V14.01,2013-02-23 19:34:00,
2013-02-23 14:40:00,40.9,40.9,30.02,West,266,0.0,2.0,100,0.00,,-RA,0.61,VWS V14.01,2013-02-23 19:40:00,
2013-02-23 14:47:00,40.9,40.9,30.02,West,266,0.0,0.0,100,0.00,,-RA,0.61,VWS V14.01,2013-02-23 19:47:00,
2013-02-23 15:10:00,41.3,41.3,30.02,WNW,292,1.0,4.0,100,0.00,,-RA,0.61,VWS V14.01,2013-02-23 20:10:00,
2013-02-23 15:31:00,41.6,41.6,30.00,NNW,333,1.0,1.0,100,0.00,,-RA,0.61,VWS V14.01,2013-02-23 20:31:00,
2013-02-23 15:38:00,41.6,41.6,30.00,NW,309,2.0,2.0,100,0.00,,-RA,0.61,VWS V14.01,2013-02-23 20:38:00,
2013-02-23 15:44:00,41.6,41.6,30.00,NW,311,0.0,3.0,100,0.00,,-RA,0.61,VWS V14.01,2013-02-23 20:44:00,
2013-02-23 15:50:00,41.8,41.8,30.00,NW,311,0.0,1.0,100,0.00,,-RA,0.61,VWS V14.01,2013-02-23 20:50:00,
2013-02-23 15:55:00,41.9,41.9,30.00,NW,311,0.0,1.0,100,0.00,,-RA,0.61,VWS V14.01,2013-02-23 20:55:00,
2013-02-23 16:00:00,41.9,41.9,30.00,WNW,290,0.0,1.0,100,0.00,,-RA,0.61,VWS V14.01,2013-02-23 21:00:00,
2013-02-23 16:06:00,41.9,41.9,29.99,WNW,290,0.0,0.0,100,0.00,,,0.61,VWS V14.01,2013-02-23 21:06:00,
2013-02-23 16:12:00,41.9,41.9,29.99,WNW,290,0.0,4.0,100,0.00,,,0.61,VWS V14.01,2013-02-23 21:12:00,
2013-02-23 16:18:00,42.1,42.1,29.99,WNW,291,1.0,2.0,100,0.00,,,0.61,VWS V14.01,2013-02-23 21:18:00,
2013-02-23 16:25:00,42.2,42.2,29.99,WNW,291,0.0,2.0,100,0.00,,,0.61,VWS V14.01,2013-02-23 21:25:00,
2013-02-23 16:31:00,42.2,42.2,29.99,WNW,291,0.0,1.0,100,0.00,,,0.61,VWS V14.01,2013-02-23 21:31:00,
2013-02-23 16:37:00,42.3,42.3,30.00,WNW,291,0.0,0.0,100,0.00,,,0.61,VWS V14.01,2013-02-23 21:37:00,
2013-02-23 16:43:00,42.3,42.3,30.00,WNW,291,0.0,2.0,100,0.00,,,0.61,VWS V14.01,2013-02-23 21:43:00,
2013-02-23 16:49:00,42.3,42.3,30.00,WNW,291,0.0,1.0,100,0.00,,,0.61,VWS V14.01,2013-02-23 21:49:00,
2013-02-23 16:55:00,42.3,42.3,30.00,WNW,291,0.0,1.0,100,0.00,,,0.61,VWS V14.01,2013-02-23 21:55:00,
2013-02-23 17:01:00,42.3,42.3,30.00,WNW,291,0.0,2.0,100,0.00,,,0.61,VWS V14.01,2013-02-23 22:01:00,
2013-02-23 17:07:00,42.3,42.3,30.00,WNW,291,0.0,0.0,100,0.00,,,0.61,VWS V14.01,2013-02-23 22:07:00,
2013-02-23 17:13:00,42.3,42.3,30.00,WNW,291,0.0,1.0,100,0.00,,,0.61,VWS V14.01,2013-02-23 22:13:00,
2013-02-23 17:19:00,42.2,42.2,30.00,WNW,291,0.0,2.0,100,0.00,,,0.61,VWS V14.01,2013-02-23 22:19:00,
2013-02-23 17:25:00,42.3,42.3,30.00,WNW,291,0.0,2.0,100,0.00,,,0.61,VWS V14.01,2013-02-23 22:25:00,
2013-02-23 17:31:00,42.2,42.2,30.00,WNW,291,0.0,0.0,100,0.00,,,0.61,VWS V14.01,2013-02-23 22:31:00,
2013-02-23 17:37:00,42.2,42.2,30.00,WNW,291,0.0,0.0,100,0.00,,,0.61,VWS V14.01,2013-02-23 22:37:00,
2013-02-23 17:43:00,42.2,42.2,30.00,WNW,291,0.0,1.0,100,0.00,,,0.61,VWS V14.01,2013-02-23 22:43:00,
2013-02-23 17:49:00,42.2,42.2,29.98,WNW,291,0.0,0.0,100,0.00,,,0.61,VWS V14.01,2013-02-23 22:49:00,
2013-02-23 17:55:00,42.2,42.2,29.98,WNW,291,0.0,0.0,100,0.00,,,0.61,VWS V14.01,2013-02-23 22:55:00,
2013-02-23 18:01:00,42.1,42.1,29.98,WNW,291,0.0,1.0,100,0.00,,,0.61,VWS V14.01,2013-02-23 23:01:00,
2013-02-23 18:07:00,42.1,42.1,29.98,WNW,291,0.0,0.0,100,0.00,,,0.61,VWS V14.01,2013-02-23 23:07:00,
2013-02-23 18:13:00,42.1,42.1,29.98,WNW,291,0.0,0.0,100,0.00,,,0.61,VWS V14.01,2013-02-23 23:13:00,
2013-02-23 18:19:00,42.1,42.1,29.97,WNW,291,0.0,0.0,100,0.00,,,0.61,VWS V14.01,2013-02-23 23:19:00,
2013-02-23 18:25:00,42.1,42.1,29.97,WNW,291,0.0,0.0,100,0.00,,,0.61,VWS V14.01,2013-02-23 23:25:00,
2013-02-23 18:30:00,42.2,42.2,29.97,WNW,291,0.0,0.0,100,0.00,,,0.61,VWS V14.01,2013-02-23 23:30:00,
2013-02-23 18:35:00,42.2,42.2,29.97,WNW,291,0.0,0.0,100,0.00,,,0.61,VWS V14.01,2013-02-23 23:35:00,
2013-02-23 18:40:00,42.2,42.2,29.97,WNW,291,0.0,0.0,100,0.00,,,0.61,VWS V14.01,2013-02-23 23:40:00,
2013-02-23 18:46:00,42.2,42.2,29.97,WNW,291,0.0,0.0,100,0.00,,,0.61,VWS V14.01,2013-02-23 23:46:00,
2013-02-23 18:52:00,42.2,42.2,29.96,WNW,291,0.0,0.0,100,0.00,,,0.61,VWS V14.01,2013-02-23 23:52:00,
2013-02-23 18:58:00,42.1,42.1,29.96,WNW,291,0.0,0.0,100,0.00,,,0.61,VWS V14.01,2013-02-23 23:58:00,
2013-02-23 19:04:00,42.1,42.1,29.97,WNW,291,0.0,2.0,100,0.00,,,0.61,VWS V14.01,2013-02-24 00:04:00,
2013-02-23 19:10:00,42.1,42.1,29.97,WNW,291,0.0,0.0,100,0.00,,,0.61,VWS V14.01,2013-02-24 00:10:00,
2013-02-23 19:17:00,42.1,42.1,29.97,WNW,291,0.0,0.0,100,0.00,,,0.61,VWS V14.01,2013-02-24 00:17:00,
2013-02-23 19:23:00,42.1,42.1,29.97,WNW,291,0.0,1.0,100,0.00,,,0.61,VWS V14.01,2013-02-24 00:23:00,
2013-02-23 19:29:00,41.9,41.9,29.97,WNW,291,0.0,0.0,100,0.00,,,0.61,VWS V14.01,2013-02-24 00:29:00,
2013-02-23 19:35:00,41.9,41.9,29.97,WNW,291,0.0,2.0,100,0.00,,,0.61,VWS V14.01,2013-02-24 00:35:00,
2013-02-23 19:41:00,41.8,41.8,29.97,WNW,291,0.0,0.0,100,0.00,,,0.61,VWS V14.01,2013-02-24 00:41:00,
2013-02-23 19:47:00,41.8,41.8,29.97,WNW,291,0.0,0.0,100,0.00,,,0.61,VWS V14.01,2013-02-24 00:47:00,
2013-02-23 19:53:00,41.8,41.8,29.97,WNW,291,0.0,0.0,100,0.00,,,0.61,VWS V14.01,2013-02-24 00:53:00,
2013-02-23 19:59:00,41.8,41.8,29.97,WNW,291,0.0,0.0,100,0.00,,,0.61,VWS V14.01,2013-02-24 00:59:00,
2013-02-23 20:05:00,41.9,41.9,29.97,WNW,291,0.0,0.0,100,0.00,,,0.61,VWS V14.01,2013-02-24 01:05:00,
2013-02-23 20:11:00,41.9,41.9,29.97,WNW,291,0.0,0.0,100,0.00,,,0.61,VWS V14.01,2013-02-24 01:11:00,
2013-02-23 20:17:00,41.9,41.9,29.97,WNW,291,0.0,0.0,100,0.00,,,0.61,VWS V14.01,2013-02-24 01:17:00,
2013-02-23 20:23:00,41.8,41.8,29.98,WNW,291,0.0,0.0,100,0.00,,,0.61,VWS V14.01,2013-02-24 01:23:00,
2013-02-23 20:29:00,41.8,41.8,29.98,WNW,291,0.0,0.0,100,0.00,,,0.61,VWS V14.01,2013-02-24 01:29:00,
2013-02-23 20:35:00,41.8,41.8,29.99,WNW,291,0.0,0.0,100,0.00,,,0.61,VWS V14.01,2013-02-24 01:35:00,
2013-02-23 20:41:00,41.9,41.9,29.99,WNW,291,0.0,0.0,100,0.00,,,0.61,VWS V14.01,2013-02-24 01:41:00,
2013-02-23 20:47:00,41.9,41.9,29.99,WNW,291,0.0,0.0,100,0.00,,,0.61,VWS V14.01,2013-02-24 01:47:00,
2013-02-23 20:53:00,41.9,41.9,30.00,WNW,291,0.0,0.0,100,0.00,,,0.61,VWS V14.01,2013-02-24 01:53:00,
2013-02-23 20:59:00,41.9,41.9,30.00,WNW,291,0.0,0.0,100,0.00,,,0.61,VWS V14.01,2013-02-24 01:59:00,
2013-02-23 21:05:00,41.9,41.9,29.98,WNW,291,0.0,0.0,100,0.00,,,0.61,VWS V14.01,2013-02-24 02:05:00,
2013-02-23 21:10:00,42.1,42.1,29.98,WNW,291,0.0,0.0,100,0.00,,,0.61,VWS V14.01,2013-02-24 02:10:00,
2013-02-23 21:15:00,42.1,42.1,29.98,WNW,291,0.0,0.0,100,0.00,,,0.61,VWS V14.01,2013-02-24 02:15:00,
2013-02-23 21:20:00,42.1,42.1,29.98,WNW,291,0.0,0.0,100,0.00,,,0.61,VWS V14.01,2013-02-24 02:20:00,
2013-02-23 21:26:00,42.1,42.1,29.98,WNW,291,0.0,0.0,100,0.00,,,0.61,VWS V14.01,2013-02-24 02:26:00,
2013-02-23 21:32:00,42.2,42.2,29.98,WNW,291,0.0,0.0,100,0.00,,,0.61,VWS V14.01,2013-02-24 02:32:00,
2013-02-23 21:38:00,42.2,42.2,29.98,WNW,291,2.0,2.0,100,0.00,,,0.61,VWS V14.01,2013-02-24 02:38:00,
2013-02-23 21:44:00,42.2,42.2,29.98,WNW,291,0.0,2.0,100,0.00,,,0.61,VWS V14.01,2013-02-24 02:44:00,
2013-02-23 21:50:00,42.2,42.2,30.00,WNW,291,0.0,0.0,100,0.00,,,0.61,VWS V14.01,2013-02-24 02:50:00,
2013-02-23 21:57:00,42.2,42.2,30.00,WNW,291,0.0,0.0,100,0.00,,,0.61,VWS V14.01,2013-02-24 02:57:00,
2013-02-23 22:03:00,42.2,42.2,30.00,WNW,291,0.0,1.0,100,0.00,,,0.61,VWS V14.01,2013-02-24 03:03:00,
2013-02-23 22:09:00,42.2,42.2,29.99,WNW,291,0.0,0.0,100,0.00,,,0.61,VWS V14.01,2013-02-24 03:09:00,
2013-02-23 22:15:00,42.1,42.1,29.99,WNW,291,0.0,0.0,100,0.00,,,0.61,VWS V14.01,2013-02-24 03:15:00,
2013-02-23 22:21:00,42.1,42.1,29.98,WNW,291,0.0,0.0,100,0.00,,,0.61,VWS V14.01,2013-02-24 03:21:00,
2013-02-23 22:27:00,42.1,42.1,29.98,WNW,291,0.0,0.0,100,0.00,,,0.61,VWS V14.01,2013-02-24 03:27:00,
2013-02-23 22:33:00,42.1,42.1,29.98,WNW,291,0.0,0.0,100,0.00,,,0.61,VWS V14.01,2013-02-24 03:33:00,
2013-02-23 22:39:00,42.1,42.1,29.97,WNW,291,0.0,0.0,100,0.00,,,0.61,VWS V14.01,2013-02-24 03:39:00,
2013-02-23 22:45:00,42.1,42.1,29.97,WNW,291,0.0,0.0,100,0.00,,,0.61,VWS V14.01,2013-02-24 03:45:00,
2013-02-23 22:51:00,42.1,42.1,29.96,WNW,291,0.0,0.0,100,0.00,,,0.61,VWS V14.01,2013-02-24 03:51:00,
2013-02-23 22:57:00,42.1,42.1,29.96,WNW,291,0.0,2.0,100,0.00,,,0.61,VWS V14.01,2013-02-24 03:57:00,
2013-02-23 23:03:00,41.9,41.9,29.96,WNW,291,0.0,2.0,100,0.00,,,0.61,VWS V14.01,2013-02-24 04:03:00,
2013-02-23 23:09:00,41.9,41.9,29.94,WNW,291,0.0,0.0,100,0.00,,,0.61,VWS V14.01,2013-02-24 04:09:00,
2013-02-23 23:15:00,41.9,41.9,29.94,WNW,291,0.0,1.0,100,0.00,,,0.61,VWS V14.01,2013-02-24 04:15:00,
2013-02-23 23:21:00,41.9,41.9,29.93,WNW,291,0.0,0.0,100,0.00,,,0.61,VWS V14.01,2013-02-24 04:21:00,
2013-02-23 23:27:00,41.8,41.8,29.93,WNW,291,0.0,0.0,100,0.00,,,0.61,VWS V14.01,2013-02-24 04:27:00,
2013-02-23 23:33:00,41.8,41.8,29.93,WNW,291,0.0,0.0,100,0.00,,,0.61,VWS V14.01,2013-02-24 04:33:00,
2013-02-23 23:39:00,41.8,41.8,29.93,WNW,291,0.0,0.0,100,0.00,,,0.61,VWS V14.01,2013-02-24 04:39:00,
2013-02-23 23:45:00,41.9,41.9,29.93,WNW,291,1.0,2.0,100,0.00,,,0.61,VWS V14.01,2013-02-24 04:45:00,
2013-02-23 23:51:00,41.9,41.9,29.95,WNW,291,2.0,3.0,100,0.00,,,0.61,VWS V14.01,2013-02-24 04:51:00,
2013-02-23 23:57:00,41.9,41.9,29.95,WNW,291,1.0,2.0,100,0.00,,,0.61,VWS V14.01,2013-02-24 04:57:00,